there are no active watches, warnings or advisories



my webcam  My webcam


visit our other weather sites:

Template documentation
and downloads

And another site




nearby metar reports

   
KAHN - Athens Airport, GA
distance from station: e 35 mi
updated: Aug 20 2019 8:51 pm
clear  
clear  
   wind: east 4.6 mph
wind: east 4.6 mph
temperature: 78.8°F
dew point: 73.4°F
humidity: 84%
barometer: 30.09 inHg
clouds: Clear
visibility: 10 mi
cloud details: clear ft
KAHN 210051Z AUTO 09004KT 10SM CLR 26/23 A3009 RMK AO2 SLP183 T02610228
KBGE - Brainbridge Airport, GA
distance from station: ssw 180 mi
updated: Aug 20 2019 9:35 pm
clear  
clear  
   wind: calm
wind: calm
temperature: 78.8°F
dew point: 75.2°F
humidity: 89%
barometer: 30.1 inHg
clouds: Clear
visibility: 10 mi
cloud details: clear ft
KBGE 210135Z AUTO 00000KT 10SM CLR 26/24 A3010 RMK AO2 T02570242
KSSI - Brunswick Airport, GA
distance from station: se 209 mi
updated: Aug 20 2019 8:53 pm
clear  
clear  
   wind: se 8.1 mph
wind: se 8.1 mph
temperature: 82.4°F
heat index: 89.6°F
dew point: 75.2°F
humidity: 79%
barometer: 30.1 inHg
clouds: Clear
visibility: 10 mi
cloud details: clear ft
KSSI 210053Z AUTO 14007KT 10SM CLR 28/24 A3010 RMK AO2 SLP192 T02830239
KCSG - Columbus Airport, GA
distance from station: sw 92 mi
updated: Aug 20 2019 8:51 pm
clear  
clear  
   wind: calm
wind: calm
temperature: 80.6°F
heat index: 84.2°F
dew point: 71.6°F
humidity: 74%
barometer: 30.08 inHg
clouds: Clear
visibility: 10 mi
cloud details: clear ft
KCSG 210051Z 00000KT 10SM CLR 27/22 A3008 RMK AO2 SLP180 T02670217
KGVL - Gainsville Airport, GA
distance from station: n 30 mi
updated: Aug 20 2019 8:53 pm
partly cloudy  
partly cloudy  
   wind: ne 5.8 mph
wind: ne 5.8 mph
temperature: 78.8°F
dew point: 69.8°F
humidity: 74%
barometer: 30.15 inHg
clouds: Partly Cloudy
visibility: 10 mi
cloud details: partly cloudy 11000 ft
KGVL 210053Z AUTO 05005KT 10SM SCT110 26/21 A3015 RMK AO2 SLP192 T02610211
KRMG - Rome Airport, GA
distance from station: nw 60 mi
updated: Aug 20 2019 8:53 pm
clear  
clear  
   wind: calm
wind: calm
temperature: 84.2°F
heat index: 87.8°F
dew point: 69.8°F
humidity: 62%
barometer: 30.05 inHg
clouds: Clear
visibility: 10 mi
cloud details: clear ft
KRMG 210053Z AUTO 00000KT 10SM CLR 29/21 A3005 RMK AO2 LTG DSNT SW AND W SLP164 T02890211
KSAV - Savannah Airport, GA
distance from station: se 183 mi
updated: Aug 20 2019 8:53 pm
mostly cloudy  
mostly cloudy  
   wind: south 6.9 mph
wind: south 6.9 mph
temperature: 82.4°F
heat index: 89.6°F
dew point: 75.2°F
humidity: 79%
barometer: 30.1 inHg
clouds: Mostly Cloudy
visibility: 10 mi
cloud details: few clouds 5000 ft,
few clouds 8000 ft,
partly cloudy 18000 ft,
mostly cloudy 23000 ft
KSAV 210053Z 18006KT 10SM FEW050 FEW080 SCT180 BKN230 28/24 A3010 RMK AO2 SLP191 T02780244
KVLD - Valdosta Airport, GA
distance from station: s 185 mi
updated: Aug 20 2019 8:53 pm
clear  
clear  
   wind: se 6.9 mph
wind: se 6.9 mph
temperature: 82.4°F
heat index: 87.8°F
dew point: 73.4°F
humidity: 74%
barometer: 30.09 inHg
clouds: Clear
visibility: 10 mi
cloud details: clear ft
KVLD 210053Z 13006KT 10SM CLR 28/23 A3009 RMK AO2 SLP195 T02780228
KWRB - Warner Robins Airport, GA
distance from station: sse 78 mi
updated: Aug 20 2019 8:56 pm
clear  
clear  
   wind: wsw 3.5 mph
wind: wsw 3.5 mph
temperature: 80.6°F
heat index: 84.2°F
dew point: 71.6°F
humidity: 74%
barometer: 30.08 inHg
clouds: Clear
visibility: 10 mi
cloud details: clear ft
KWRB 210056Z 24003KT 10SM CLR 27/22 A3008 RMK AO2A SLP186 T02660215

script developed by  Saratoga-weather.org adapted for the template by  Weerstation Leuven

equipment we use:

weather-station
Davis VP2 weatherstation

weather-program
WeatherLink

weather-server
My Computer

provider
My provider

Davis VP2 weatherstation

WeatherLink

My Computer

My provider